createdAt,value
2023-02-28T09:10:36.961Z,2.29
2023-02-28T09:13:04.314Z,2.43
2023-02-28T09:15:31.624Z,2.58
2023-02-28T09:17:58.978Z,2.84
2023-02-28T09:20:26.563Z,2.77
2023-02-28T09:22:53.915Z,2.96
2023-02-28T09:25:21.282Z,3.11
2023-02-28T09:27:48.637Z,3.15
2023-02-28T09:30:17.213Z,3.04
2023-02-28T09:32:54.708Z,3.24
2023-02-28T09:35:27.731Z,2.90
2023-02-28T09:37:55.172Z,3.16
2023-02-28T09:40:26.583Z,3.22
2023-02-28T09:42:58.276Z,3.48
2023-02-28T09:45:43.668Z,3.44
2023-02-28T09:48:27.838Z,3.56
2023-02-28T09:51:13.654Z,3.60
2023-02-28T09:53:41.093Z,3.88
2023-02-28T09:56:42.866Z,3.65
2023-02-28T09:59:45.656Z,3.98
2023-02-28T10:03:05.056Z,3.64
2023-02-28T10:06:18.143Z,3.81
2023-02-28T10:09:14.464Z,3.93
2023-02-28T10:11:43.855Z,3.95
2023-02-28T10:14:28.594Z,4.18
2023-02-28T10:17:26.460Z,3.81
2023-02-28T10:20:30.744Z,4.23
2023-02-28T10:23:32.840Z,3.98
2023-02-28T10:26:17.076Z,4.21
2023-02-28T10:28:45.497Z,4.16
2023-02-28T10:31:22.679Z,4.40
2023-02-28T10:33:51.396Z,4.14
2023-02-28T10:36:22.814Z,4.24
2023-02-28T10:38:51.461Z,4.29
2023-02-28T10:41:37.262Z,4.22
2023-02-28T10:44:34.154Z,4.23
2023-02-28T10:47:01.502Z,4.30
2023-02-28T10:49:30.236Z,4.46
2023-02-28T10:52:01.964Z,4.14
2023-02-28T10:54:38.847Z,4.52
2023-02-28T10:57:29.596Z,4.73
2023-02-28T11:00:22.587Z,4.48
2023-02-28T11:02:50.415Z,4.52
2023-02-28T11:05:32.627Z,4.66
2023-02-28T11:08:16.940Z,4.79
2023-02-28T11:11:00.138Z,4.70
2023-02-28T11:13:37.240Z,4.92
2023-02-28T11:16:13.724Z,5.02
2023-02-28T11:18:56.401Z,4.86
2023-02-28T11:21:37.666Z,4.98
2023-02-28T11:24:30.073Z,5.06
2023-02-28T11:26:58.272Z,5.29
2023-02-28T11:29:35.657Z,5.00
2023-02-28T11:32:29.726Z,5.10
2023-02-28T11:35:23.457Z,5.25
2023-02-28T11:37:51.008Z,5.42
2023-02-28T11:40:39.799Z,5.45
2023-02-28T11:43:57.457Z,5.53
2023-02-28T11:46:55.363Z,5.58
2023-02-28T11:50:18.673Z,5.57
2023-02-28T11:53:32.088Z,5.49
2023-02-28T11:56:43.545Z,5.74
2023-02-28T11:59:50.300Z,5.68
2023-02-28T12:03:42.538Z,5.63
2023-02-28T12:06:36.663Z,5.61
2023-02-28T12:10:06.182Z,5.75
2023-02-28T12:13:28.110Z,5.87
2023-02-28T12:16:39.830Z,5.80
2023-02-28T12:19:59.314Z,5.78
2023-02-28T12:22:43.536Z,5.94
2023-02-28T12:26:11.306Z,6.10
2023-02-28T12:28:54.525Z,5.92
2023-02-28T12:31:32.102Z,5.88
2023-02-28T12:34:11.146Z,5.58
2023-02-28T12:36:41.132Z,5.86
2023-02-28T12:39:39.085Z,5.60
2023-02-28T12:42:33.490Z,5.90
2023-02-28T12:45:24.892Z,5.78
2023-02-28T12:48:23.101Z,5.86
2023-02-28T12:50:51.399Z,6.05
2023-02-28T12:54:11.584Z,5.99
2023-02-28T12:57:35.951Z,5.92
2023-02-28T13:00:23.295Z,5.87
2023-02-28T13:03:26.060Z,6.28
2023-02-28T13:06:36.615Z,6.19
2023-02-28T13:09:14.789Z,6.29
2023-02-28T13:11:48.699Z,6.44
2023-02-28T13:14:34.292Z,6.30
2023-02-28T13:17:14.131Z,6.26
2023-02-28T13:20:38.069Z,6.42
2023-02-28T13:23:25.405Z,6.48
2023-02-28T13:25:54.622Z,6.51
2023-02-28T13:28:56.593Z,6.03
2023-02-28T13:31:23.988Z,6.41
2023-02-28T13:34:00.553Z,6.41
2023-02-28T13:36:33.859Z,6.45
2023-02-28T13:39:37.794Z,6.04
2023-02-28T13:42:36.998Z,6.01
2023-02-28T13:45:06.926Z,6.21
2023-02-28T13:48:15.856Z,6.36
2023-02-28T13:50:44.847Z,6.36
2023-02-28T13:53:14.964Z,6.54
2023-02-28T13:56:11.241Z,6.45
2023-02-28T13:59:21.905Z,6.23
2023-02-28T14:02:50.178Z,6.42
2023-02-28T14:05:26.704Z,6.49
2023-02-28T14:08:07.398Z,6.35
2023-02-28T14:10:49.903Z,6.56
2023-02-28T14:13:48.342Z,6.48
2023-02-28T14:16:40.311Z,6.36
2023-02-28T14:19:28.532Z,6.30
2023-02-28T14:23:01.545Z,6.17
2023-02-28T14:25:54.702Z,6.33
2023-02-28T14:29:25.624Z,6.25
2023-02-28T14:32:23.373Z,6.35
2023-02-28T14:35:59.040Z,6.45
2023-02-28T14:39:17.156Z,6.23
2023-02-28T14:41:46.956Z,6.21
2023-02-28T14:44:28.950Z,6.19
2023-02-28T14:47:09.934Z,6.44
2023-02-28T14:49:46.781Z,6.20
2023-02-28T14:52:25.288Z,6.27
2023-02-28T14:55:15.527Z,6.39
2023-02-28T14:58:05.182Z,6.32
2023-02-28T15:00:51.811Z,6.36
2023-02-28T15:03:38.001Z,6.35
2023-02-28T15:06:17.665Z,6.19
2023-02-28T15:08:46.621Z,6.11
2023-02-28T15:11:23.185Z,6.52
2023-02-28T15:13:56.529Z,6.40
2023-02-28T15:16:38.460Z,6.24
2023-02-28T15:19:27.267Z,6.38
2023-02-28T15:22:17.845Z,6.39
2023-02-28T15:24:52.207Z,6.40
2023-02-28T15:27:34.679Z,6.43
2023-02-28T15:30:33.663Z,6.22
2023-02-28T15:33:25.979Z,6.31
2023-02-28T15:36:16.915Z,6.40
2023-02-28T15:38:45.021Z,6.26
2023-02-28T15:41:39.085Z,6.37
2023-02-28T15:44:39.132Z,6.29
2023-02-28T15:47:26.122Z,6.11
2023-02-28T15:50:13.486Z,6.21
2023-02-28T15:52:45.991Z,6.11
2023-02-28T15:55:30.773Z,6.25
2023-02-28T15:58:02.921Z,6.53
2023-02-28T16:00:33.957Z,6.30
2023-02-28T16:03:01.410Z,6.15
2023-02-28T16:05:32.886Z,5.97
2023-02-28T16:08:16.573Z,6.15
2023-02-28T16:10:43.899Z,6.20
2023-02-28T16:13:16.142Z,6.27
2023-02-28T16:15:44.887Z,6.26
2023-02-28T16:18:14.179Z,6.10
2023-02-28T16:20:42.383Z,5.95
2023-02-28T16:23:09.690Z,5.76
2023-02-28T16:25:44.621Z,5.80
2023-02-28T16:28:39.848Z,5.76
2023-02-28T16:31:08.603Z,5.73
2023-02-28T16:33:35.994Z,5.79
2023-02-28T16:36:03.701Z,6.13
2023-02-28T16:38:31.052Z,6.00
2023-02-28T16:41:01.077Z,6.22
2023-02-28T16:43:29.067Z,5.91
2023-02-28T16:46:02.372Z,5.78
2023-02-28T16:48:30.566Z,5.96
2023-02-28T16:50:58.093Z,6.05
2023-02-28T16:53:25.361Z,6.18
2023-02-28T16:55:52.736Z,6.14
2023-02-28T16:58:22.673Z,6.22
2023-02-28T17:00:50.212Z,6.16
2023-02-28T17:03:33.489Z,6.04
2023-02-28T17:06:02.237Z,5.94
2023-02-28T17:08:30.802Z,5.86
2023-02-28T17:10:58.140Z,6.09
2023-02-28T17:13:25.878Z,5.93
2023-02-28T17:15:53.346Z,6.03
2023-02-28T17:18:22.071Z,6.01
2023-02-28T17:20:49.984Z,6.08
2023-02-28T17:23:17.406Z,5.94
2023-02-28T17:25:56.390Z,5.92
2023-02-28T17:28:25.849Z,5.95
2023-02-28T17:30:53.245Z,5.76
2023-02-28T17:33:20.573Z,5.91
2023-02-28T17:35:48.255Z,5.80
2023-02-28T17:38:20.621Z,5.83
2023-02-28T17:40:48.000Z,5.55
2023-02-28T17:43:15.888Z,5.62
2023-02-28T17:45:43.386Z,5.58
2023-02-28T17:48:13.994Z,5.61
2023-02-28T17:50:41.408Z,5.62
2023-02-28T17:53:08.715Z,5.59
2023-02-28T17:55:36.911Z,5.58
2023-02-28T17:58:04.859Z,5.76
2023-02-28T18:00:35.553Z,5.66
2023-02-28T18:03:02.942Z,5.52
2023-02-28T18:05:31.068Z,5.48
2023-02-28T18:07:58.579Z,5.59
2023-02-28T18:10:28.281Z,5.48
2023-02-28T18:12:55.858Z,5.55
2023-02-28T18:15:23.622Z,5.49
2023-02-28T18:17:51.168Z,5.73
2023-02-28T18:20:19.633Z,5.72
2023-02-28T18:22:47.619Z,5.63
2023-02-28T18:25:17.054Z,5.76
2023-02-28T18:27:58.596Z,5.65
2023-02-28T18:30:37.342Z,5.68
2023-02-28T18:33:05.272Z,5.66
2023-02-28T18:35:36.153Z,5.75
2023-02-28T18:38:30.095Z,5.79
2023-02-28T18:41:05.458Z,5.52
2023-02-28T18:43:36.572Z,5.75
2023-02-28T18:46:15.689Z,5.54
2023-02-28T18:48:44.047Z,5.53
2023-02-28T18:51:23.599Z,5.70
2023-02-28T18:53:51.066Z,5.56
2023-02-28T18:56:23.885Z,5.45
2023-02-28T18:58:52.925Z,5.50
2023-02-28T19:01:31.050Z,5.56
2023-02-28T19:04:01.808Z,5.61
2023-02-28T19:06:31.261Z,5.45
2023-02-28T19:09:03.819Z,5.37
2023-02-28T19:11:32.101Z,5.42
2023-02-28T19:13:59.676Z,5.52
2023-02-28T19:16:28.308Z,5.55
2023-02-28T19:18:56.064Z,5.58
2023-02-28T19:21:25.057Z,5.54
2023-02-28T19:23:53.291Z,5.53
2023-02-28T19:26:25.564Z,5.31
2023-02-28T19:28:53.617Z,5.50
2023-02-28T19:31:26.671Z,5.47
2023-02-28T19:33:54.957Z,5.31
2023-02-28T19:36:23.468Z,5.24
2023-02-28T19:38:51.181Z,5.40
2023-02-28T19:41:19.543Z,5.48
2023-02-28T19:43:47.915Z,5.59
2023-02-28T19:46:15.531Z,5.59
2023-02-28T19:48:44.761Z,5.56
2023-02-28T19:51:14.984Z,5.56
2023-02-28T19:53:43.555Z,5.32
2023-02-28T19:56:12.055Z,5.51
2023-02-28T19:58:40.063Z,5.55
2023-02-28T20:01:18.862Z,5.65
2023-02-28T20:03:51.756Z,5.63
2023-02-28T20:06:19.292Z,5.39
2023-02-28T20:08:46.602Z,5.60
2023-02-28T20:11:17.535Z,5.59
2023-02-28T20:13:45.866Z,5.31
2023-02-28T20:16:15.969Z,5.51
2023-02-28T20:18:46.662Z,5.43
2023-02-28T20:21:14.318Z,5.50
2023-02-28T20:23:43.380Z,5.60
2023-02-28T20:26:12.463Z,5.70
2023-02-28T20:28:40.487Z,5.64
